sensor_id;sensor_type;location;lat;lon;timestamp;pressure;altitude;pressure_sealevel;temperature;humidity
46724;BME280;32463;48.298;11.620;2023-04-20T00:02:00;96221.88;;;3.63;100.00
46724;BME280;32463;48.298;11.620;2023-04-20T00:04:28;96214.88;;;3.65;100.00
46724;BME280;32463;48.298;11.620;2023-04-20T00:06:55;96211.63;;;3.63;100.00
46724;BME280;32463;48.298;11.620;2023-04-20T00:09:23;96211.38;;;3.66;100.00
46724;BME280;32463;48.298;11.620;2023-04-20T00:11:50;96203.00;;;3.64;100.00
46724;BME280;32463;48.298;11.620;2023-04-20T00:14:16;96211.63;;;3.63;100.00
46724;BME280;32463;48.298;11.620;2023-04-20T00:16:43;96204.63;;;3.65;100.00
46724;BME280;32463;48.298;11.620;2023-04-20T00:19:09;96192.75;;;3.64;100.00
46724;BME280;32463;48.298;11.620;2023-04-20T00:21:36;96192.03;;;3.62;100.00
46724;BME280;32463;48.298;11.620;2023-04-20T00:24:02;96188.09;;;3.58;100.00
46724;BME280;32463;48.298;11.620;2023-04-20T00:26:29;96184.81;;;3.56;100.00
46724;BME280;32463;48.298;11.620;2023-04-20T00:28:55;96188.56;;;3.52;100.00
46724;BME280;32463;48.298;11.620;2023-04-20T00:31:22;96188.22;;;3.45;100.00
46724;BME280;32463;48.298;11.620;2023-04-20T00:33:48;96192.53;;;3.45;100.00
46724;BME280;32463;48.298;11.620;2023-04-20T00:36:15;96182.50;;;3.42;100.00
46724;BME280;32463;48.298;11.620;2023-04-20T00:38:41;96182.25;;;3.45;100.00
46724;BME280;32463;48.298;11.620;2023-04-20T00:41:08;96179.00;;;3.43;100.00
46724;BME280;32463;48.298;11.620;2023-04-20T00:43:35;96174.69;;;3.43;100.00
46724;BME280;32463;48.298;11.620;2023-04-20T00:46:01;96170.84;;;3.37;100.00
46724;BME280;32463;48.298;11.620;2023-04-20T00:48:28;96167.25;;;3.40;100.00
46724;BME280;32463;48.298;11.620;2023-04-20T00:50:55;96160.59;;;3.37;100.00
46724;BME280;32463;48.298;11.620;2023-04-20T00:53:21;96159.25;;;3.33;100.00
46724;BME280;32463;48.298;11.620;2023-04-20T00:55:49;96147.13;;;3.35;100.00
46724;BME280;32463;48.298;11.620;2023-04-20T00:58:16;96144.56;;;3.35;100.00
46724;BME280;32463;48.298;11.620;2023-04-20T01:00:45;96151.28;;;3.36;100.00
46724;BME280;32463;48.298;11.620;2023-04-20T01:03:12;96142.34;;;3.31;100.00
46724;BME280;32463;48.298;11.620;2023-04-20T01:05:39;96142.25;;;3.32;100.00
46724;BME280;32463;48.298;11.620;2023-04-20T01:08:06;96144.91;;;3.31;100.00
46724;BME280;32463;48.298;11.620;2023-04-20T01:10:32;96128.72;;;3.30;100.00
46724;BME280;32463;48.298;11.620;2023-04-20T01:12:59;96122.22;;;3.26;100.00
46724;BME280;32463;48.298;11.620;2023-04-20T01:15:25;96120.94;;;3.32;100.00
46724;BME280;32463;48.298;11.620;2023-04-20T01:17:51;96123.34;;;3.45;100.00
46724;BME280;32463;48.298;11.620;2023-04-20T01:20:18;96131.72;;;3.47;100.00
46724;BME280;32463;48.298;11.620;2023-04-20T01:22:49;96125.66;;;3.48;100.00
46724;BME280;32463;48.298;11.620;2023-04-20T01:25:17;96110.41;;;3.46;100.00
46724;BME280;32463;48.298;11.620;2023-04-20T01:27:44;96121.91;;;3.52;100.00
46724;BME280;32463;48.298;11.620;2023-04-20T01:30:11;96113.41;;;3.51;100.00
46724;BME280;32463;48.298;11.620;2023-04-20T01:32:38;96112.59;;;3.62;100.00
46724;BME280;32463;48.298;11.620;2023-04-20T01:35:06;96109.09;;;3.63;100.00
46724;BME280;32463;48.298;11.620;2023-04-20T01:37:33;96105.84;;;3.61;100.00
46724;BME280;32463;48.298;11.620;2023-04-20T01:40:00;96113.06;;;3.56;100.00
46724;BME280;32463;48.298;11.620;2023-04-20T01:42:26;96103.03;;;3.53;100.00
46724;BME280;32463;48.298;11.620;2023-04-20T01:44:52;96112.25;;;3.55;100.00
46724;BME280;32463;48.298;11.620;2023-04-20T01:47:19;96106.53;;;3.52;100.00
46724;BME280;32463;48.298;11.620;2023-04-20T01:49:46;96106.31;;;3.55;100.00
46724;BME280;32463;48.298;11.620;2023-04-20T01:52:12;96102.13;;;3.54;100.00
46724;BME280;32463;48.298;11.620;2023-04-20T01:54:39;96102.81;;;3.56;100.00
46724;BME280;32463;48.298;11.620;2023-04-20T01:57:06;96099.19;;;3.58;100.00
46724;BME280;32463;48.298;11.620;2023-04-20T01:59:32;96092.31;;;3.59;100.00
46724;BME280;32463;48.298;11.620;2023-04-20T02:01:59;96084.28;;;3.52;100.00
46724;BME280;32463;48.298;11.620;2023-04-20T02:04:25;96072.88;;;3.56;100.00
46724;BME280;32463;48.298;11.620;2023-04-20T02:06:56;96071.25;;;3.44;100.00
46724;BME280;32463;48.298;11.620;2023-04-20T02:09:23;96079.28;;;3.51;100.00
46724;BME280;32463;48.298;11.620;2023-04-20T02:11:49;96079.06;;;3.54;100.00
46724;BME280;32463;48.298;11.620;2023-04-20T02:14:16;96087.88;;;3.61;100.00
46724;BME280;32463;48.298;11.620;2023-04-20T02:16:43;96065.31;;;3.55;100.00
46724;BME280;32463;48.298;11.620;2023-04-20T02:19:10;96077.63;;;3.61;100.00
46724;BME280;32463;48.298;11.620;2023-04-20T02:21:37;96083.22;;;3.66;100.00
46724;BME280;32463;48.298;11.620;2023-04-20T02:24:04;96071.25;;;3.55;100.00
46724;BME280;32463;48.298;11.620;2023-04-20T02:26:30;96070.19;;;3.58;100.00
46724;BME280;32463;48.298;11.620;2023-04-20T02:28:57;96073.09;;;3.53;100.00
46724;BME280;32463;48.298;11.620;2023-04-20T02:31:23;96080.19;;;3.61;100.00
46724;BME280;32463;48.298;11.620;2023-04-20T02:33:50;96081.81;;;3.62;100.00
46724;BME280;32463;48.298;11.620;2023-04-20T02:36:16;96059.84;;;3.48;100.00
46724;BME280;32463;48.298;11.620;2023-04-20T02:38:43;96071.81;;;3.59;100.00
46724;BME280;32463;48.298;11.620;2023-04-20T02:41:09;96066.13;;;3.55;100.00
46724;BME280;32463;48.298;11.620;2023-04-20T02:43:35;96053.91;;;3.48;100.00
46724;BME280;32463;48.298;11.620;2023-04-20T02:46:02;96048.44;;;3.41;100.00
46724;BME280;32463;48.298;11.620;2023-04-20T02:48:29;96074.16;;;3.51;100.00
46724;BME280;32463;48.298;11.620;2023-04-20T02:50:56;96079.50;;;3.59;100.00
46724;BME280;32463;48.298;11.620;2023-04-20T02:53:22;96066.94;;;3.56;100.00
46724;BME280;32463;48.298;11.620;2023-04-20T02:55:48;96058.53;;;3.54;100.00
46724;BME280;32463;48.298;11.620;2023-04-20T02:58:18;96069.00;;;3.62;100.00
46724;BME280;32463;48.298;11.620;2023-04-20T03:00:58;96056.69;;;3.56;100.00
46724;BME280;32463;48.298;11.620;2023-04-20T03:03:27;96058.88;;;3.60;100.00
46724;BME280;32463;48.298;11.620;2023-04-20T03:05:54;96067.63;;;3.58;100.00
46724;BME280;32463;48.298;11.620;2023-04-20T03:08:21;96059.94;;;3.58;100.00
46724;BME280;32463;48.298;11.620;2023-04-20T03:10:48;96053.88;;;3.59;100.00
46724;BME280;32463;48.298;11.620;2023-04-20T03:13:15;96049.44;;;3.61;100.00
46724;BME280;32463;48.298;11.620;2023-04-20T03:15:44;96047.13;;;3.58;100.00
46724;BME280;32463;48.298;11.620;2023-04-20T03:18:10;96046.19;;;3.59;100.00
46724;BME280;32463;48.298;11.620;2023-04-20T03:20:37;96044.31;;;3.61;100.00
46724;BME280;32463;48.298;11.620;2023-04-20T03:23:03;96049.19;;;3.64;100.00
46724;BME280;32463;48.298;11.620;2023-04-20T03:25:30;96050.38;;;3.60;100.00
46724;BME280;32463;48.298;11.620;2023-04-20T03:27:57;96049.44;;;3.61;100.00
46724;BME280;32463;48.298;11.620;2023-04-20T03:30:23;96049.69;;;3.58;100.00
46724;BME280;32463;48.298;11.620;2023-04-20T03:32:50;96051.06;;;3.62;100.00
46724;BME280;32463;48.298;11.620;2023-04-20T03:35:16;96054.56;;;3.61;100.00
46724;BME280;32463;48.298;11.620;2023-04-20T03:37:45;96049.44;;;3.61;100.00
46724;BME280;32463;48.298;11.620;2023-04-20T03:40:11;96058.50;;;3.65;100.00
46724;BME280;32463;48.298;11.620;2023-04-20T03:42:38;96049.19;;;3.64;100.00
46724;BME280;32463;48.298;11.620;2023-04-20T03:45:05;96050.38;;;3.60;100.00
46724;BME280;32463;48.298;11.620;2023-04-20T03:47:32;96051.06;;;3.62;100.00
46724;BME280;32463;48.298;11.620;2023-04-20T03:49:58;96041.50;;;3.64;100.00
46724;BME280;32463;48.298;11.620;2023-04-20T03:52:25;96047.56;;;3.63;100.00
46724;BME280;32463;48.298;11.620;2023-04-20T03:54:52;96044.19;;;3.62;100.00
46724;BME280;32463;48.298;11.620;2023-04-20T03:57:18;96031.97;;;3.55;100.00
46724;BME280;32463;48.298;11.620;2023-04-20T03:59:45;96038.94;;;3.64;100.00
46724;BME280;32463;48.298;11.620;2023-04-20T04:02:11;96023.59;;;3.53;100.00
46724;BME280;32463;48.298;11.620;2023-04-20T04:04:39;96020.09;;;3.54;100.00
46724;BME280;32463;48.298;11.620;2023-04-20T04:07:06;96013.81;;;3.58;100.00
46724;BME280;32463;48.298;11.620;2023-04-20T04:09:33;96027.06;;;3.63;100.00
46724;BME280;32463;48.298;11.620;2023-04-20T04:11:59;96010.53;;;3.56;100.00
46724;BME280;32463;48.298;11.620;2023-04-20T04:14:28;96011.59;;;3.53;100.00
46724;BME280;32463;48.298;11.620;2023-04-20T04:16:55;96020.06;;;3.65;100.00
46724;BME280;32463;48.298;11.620;2023-04-20T04:19:21;96016.81;;;3.63;100.00
46724;BME280;32463;48.298;11.620;2023-04-20T04:21:48;96012.63;;;3.62;100.00
46724;BME280;32463;48.298;11.620;2023-04-20T04:24:15;96020.09;;;3.54;100.00
46724;BME280;32463;48.298;11.620;2023-04-20T04:26:42;96025.59;;;3.49;100.00
46724;BME280;32463;48.298;11.620;2023-04-20T04:29:08;96029.22;;;3.47;100.00
46724;BME280;32463;48.298;11.620;2023-04-20T04:31:35;96030.72;;;3.49;100.00
46724;BME280;32463;48.298;11.620;2023-04-20T04:34:01;96020.84;;;3.45;100.00
46724;BME280;32463;48.298;11.620;2023-04-20T04:36:28;96021.53;;;3.47;100.00
46724;BME280;32463;48.298;11.620;2023-04-20T04:38:54;96019.31;;;3.42;100.00
46724;BME280;32463;48.298;11.620;2023-04-20T04:41:21;96022.53;;;3.34;100.00
46724;BME280;32463;48.298;11.620;2023-04-20T04:43:47;96016.00;;;3.30;100.00
46724;BME280;32463;48.298;11.620;2023-04-20T04:46:14;96024.63;;;3.29;100.00
46724;BME280;32463;48.298;11.620;2023-04-20T04:48:40;96021.31;;;3.38;100.00
46724;BME280;32463;48.298;11.620;2023-04-20T04:51:08;96023.69;;;3.30;100.00
46724;BME280;32463;48.298;11.620;2023-04-20T04:53:34;96022.44;;;3.25;100.00
46724;BME280;32463;48.298;11.620;2023-04-20T04:56:01;96020.09;;;3.33;100.00
46724;BME280;32463;48.298;11.620;2023-04-20T04:58:28;96027.44;;;3.26;100.00
46724;BME280;32463;48.298;11.620;2023-04-20T05:00:55;96024.06;;;3.26;100.00
46724;BME280;32463;48.298;11.620;2023-04-20T05:03:21;96023.47;;;3.22;100.00
46724;BME280;32463;48.298;11.620;2023-04-20T05:05:47;96023.25;;;3.25;100.00
46724;BME280;32463;48.298;11.620;2023-04-20T05:08:14;96021.84;;;3.21;100.00
46724;BME280;32463;48.298;11.620;2023-04-20T05:10:40;96023.25;;;3.25;100.00
46724;BME280;32463;48.298;11.620;2023-04-20T05:13:07;96024.63;;;3.29;100.00
46724;BME280;32463;48.298;11.620;2023-04-20T05:15:33;96010.88;;;3.30;100.00
46724;BME280;32463;48.298;11.620;2023-04-20T05:18:00;96015.19;;;3.30;100.00
46724;BME280;32463;48.298;11.620;2023-04-20T05:20:27;96018.06;;;3.36;100.00
46724;BME280;32463;48.298;11.620;2023-04-20T05:22:53;96019.69;;;3.37;100.00
46724;BME280;32463;48.298;11.620;2023-04-20T05:25:20;96020.63;;;3.36;100.00
46724;BME280;32463;48.298;11.620;2023-04-20T05:27:46;96026.84;;;3.34;100.00
46724;BME280;32463;48.298;11.620;2023-04-20T05:30:13;96025.97;;;3.45;100.00
46724;BME280;32463;48.298;11.620;2023-04-20T05:32:39;96015.50;;;3.36;100.00
46724;BME280;32463;48.298;11.620;2023-04-20T05:35:06;96018.50;;;3.42;100.00
46724;BME280;32463;48.298;11.620;2023-04-20T05:37:33;96025.47;;;3.51;100.00
46724;BME280;32463;48.298;11.620;2023-04-20T05:40:00;96024.53;;;3.52;100.00
46724;BME280;32463;48.298;11.620;2023-04-20T05:42:26;96025.91;;;3.56;100.00
46724;BME280;32463;48.298;11.620;2023-04-20T05:44:53;96022.66;;;3.54;100.00
46724;BME280;32463;48.298;11.620;2023-04-20T05:47:19;96020.09;;;3.54;100.00
46724;BME280;32463;48.298;11.620;2023-04-20T05:49:46;96010.53;;;3.56;100.00
46724;BME280;32463;48.298;11.620;2023-04-20T05:52:12;96007.91;;;3.67;100.00
46724;BME280;32463;48.298;11.620;2023-04-20T05:54:38;96007.13;;;3.66;100.00
46724;BME280;32463;48.298;11.620;2023-04-20T05:57:05;96012.53;;;3.73;100.00
46724;BME280;32463;48.298;11.620;2023-04-20T05:59:32;96020.19;;;3.84;100.00
46724;BME280;32463;48.298;11.620;2023-04-20T06:01:59;96013.00;;;3.78;100.00
46724;BME280;32463;48.298;11.620;2023-04-20T06:04:25;96004.56;;;3.87;100.00
46724;BME280;32463;48.298;11.620;2023-04-20T06:06:52;96011.63;;;3.95;100.00
46724;BME280;32463;48.298;11.620;2023-04-20T06:09:18;96013.28;;;4.05;100.00
46724;BME280;32463;48.298;11.620;2023-04-20T06:11:45;96015.00;;;3.95;100.00
46724;BME280;32463;48.298;11.620;2023-04-20T06:14:12;96006.19;;;3.88;100.00
46724;BME280;32463;48.298;11.620;2023-04-20T06:16:39;96011.31;;;3.88;100.00
46724;BME280;32463;48.298;11.620;2023-04-20T06:19:05;96003.50;;;3.90;100.00
46724;BME280;32463;48.298;11.620;2023-04-20T06:21:34;96007.63;;;3.81;100.00
46724;BME280;32463;48.298;11.620;2023-04-20T06:24:01;96007.88;;;3.78;100.00
46724;BME280;32463;48.298;11.620;2023-04-20T06:26:27;96006.59;;;3.72;100.00
46724;BME280;32463;48.298;11.620;2023-04-20T06:28:54;96006.72;;;3.71;100.00
46724;BME280;32463;48.298;11.620;2023-04-20T06:31:20;95999.97;;;3.70;100.00
46724;BME280;32463;48.298;11.620;2023-04-20T06:33:46;96005.34;;;3.67;100.00
46724;BME280;32463;48.298;11.620;2023-04-20T06:36:13;96001.19;;;3.66;100.00
46724;BME280;32463;48.298;11.620;2023-04-20T06:38:39;95996.06;;;3.66;100.00
46724;BME280;32463;48.298;11.620;2023-04-20T06:41:06;95994.94;;;3.59;100.00
46724;BME280;32463;48.298;11.620;2023-04-20T06:43:33;95992.28;;;3.70;100.00
46724;BME280;32463;48.298;11.620;2023-04-20T06:46:00;95995.09;;;3.67;100.00
46724;BME280;32463;48.298;11.620;2023-04-20T06:48:26;95997.41;;;3.70;100.00
46724;BME280;32463;48.298;11.620;2023-04-20T06:50:53;95989.97;;;3.67;100.00
46724;BME280;32463;48.298;11.620;2023-04-20T06:53:19;95993.06;;;3.61;100.00
46724;BME280;32463;48.298;11.620;2023-04-20T06:55:46;95981.41;;;3.57;100.00
46724;BME280;32463;48.298;11.620;2023-04-20T06:58:12;95987.00;;;3.62;100.00
46724;BME280;32463;48.298;11.620;2023-04-20T07:00:39;95991.44;;;3.60;100.00
46724;BME280;32463;48.298;11.620;2023-04-20T07:03:05;95984.69;;;3.59;100.00
46724;BME280;32463;48.298;11.620;2023-04-20T07:05:32;95983.28;;;3.55;100.00
46724;BME280;32463;48.298;11.620;2023-04-20T07:07:58;95982.81;;;3.61;100.00
46724;BME280;32463;48.298;11.620;2023-04-20T07:10:25;95990.94;;;3.66;100.00
46724;BME280;32463;48.298;11.620;2023-04-20T07:12:52;95988.63;;;3.63;100.00
46724;BME280;32463;48.298;11.620;2023-04-20T07:15:18;95980.41;;;3.69;100.00
46724;BME280;32463;48.298;11.620;2023-04-20T07:17:45;95981.09;;;3.71;100.00
46724;BME280;32463;48.298;11.620;2023-04-20T07:20:11;95981.28;;;3.79;100.00
46724;BME280;32463;48.298;11.620;2023-04-20T07:22:37;95984.84;;;3.88;100.00
46724;BME280;32463;48.298;11.620;2023-04-20T07:25:06;95990.34;;;3.83;100.00
46724;BME280;32463;48.298;11.620;2023-04-20T07:27:37;95984.78;;;3.78;100.00
46724;BME280;32463;48.298;11.620;2023-04-20T07:30:05;95989.22;;;3.76;100.00
46724;BME280;32463;48.298;11.620;2023-04-20T07:32:33;95987.78;;;3.83;100.00
46724;BME280;32463;48.298;11.620;2023-04-20T07:35:01;95985.41;;;3.91;100.00
46724;BME280;32463;48.298;11.620;2023-04-20T07:37:28;95977.72;;;3.91;100.00
46724;BME280;32463;48.298;11.620;2023-04-20T07:39:55;95985.19;;;3.94;100.00
46724;BME280;32463;48.298;11.620;2023-04-20T07:42:22;95981.81;;;4.03;100.00
46724;BME280;32463;48.298;11.620;2023-04-20T07:44:49;95998.09;;;4.14;100.00
46724;BME280;32463;48.298;11.620;2023-04-20T07:47:16;95994.41;;;4.06;100.00
46724;BME280;32463;48.298;11.620;2023-04-20T07:49:42;96005.22;;;4.10;100.00
46724;BME280;32463;48.298;11.620;2023-04-20T07:52:09;96004.16;;;4.13;100.00
46724;BME280;32463;48.298;11.620;2023-04-20T07:54:36;95992.78;;;4.05;100.00
46724;BME280;32463;48.298;11.620;2023-04-20T07:57:03;96003.72;;;4.07;100.00
46724;BME280;32463;48.298;11.620;2023-04-20T07:59:30;96007.53;;;4.13;100.00
46724;BME280;32463;48.298;11.620;2023-04-20T08:01:58;96007.22;;;4.06;100.00
46724;BME280;32463;48.298;11.620;2023-04-20T08:04:26;96013.78;;;3.99;100.00
46724;BME280;32463;48.298;11.620;2023-04-20T08:06:52;96016.09;;;4.02;100.00
46724;BME280;32463;48.298;11.620;2023-04-20T08:09:19;96012.22;;;4.08;100.00
46724;BME280;32463;48.298;11.620;2023-04-20T08:11:46;95996.78;;;3.98;100.00
46724;BME280;32463;48.298;11.620;2023-04-20T08:14:14;95993.81;;;3.93;100.00
46724;BME280;32463;48.298;11.620;2023-04-20T08:16:40;95977.72;;;3.91;100.00
46724;BME280;32463;48.298;11.620;2023-04-20T08:19:07;95980.97;;;3.93;100.00
46724;BME280;32463;48.298;11.620;2023-04-20T08:21:39;95957.09;;;3.93;100.00
46724;BME280;32463;48.298;11.620;2023-04-20T08:24:07;95964.78;;;3.93;100.00
46724;BME280;32463;48.298;11.620;2023-04-20T08:26:34;95983.81;;;4.00;100.00
46724;BME280;32463;48.298;11.620;2023-04-20T08:29:01;95969.00;;;4.03;100.00
46724;BME280;32463;48.298;11.620;2023-04-20T08:31:28;95981.06;;;4.13;100.00
46724;BME280;32463;48.298;11.620;2023-04-20T08:33:55;95979.50;;;4.21;100.00
46724;BME280;32463;48.298;11.620;2023-04-20T08:36:21;95980.13;;;4.14;100.00
46724;BME280;32463;48.298;11.620;2023-04-20T08:38:55;95985.19;;;4.04;100.00
46724;BME280;32463;48.298;11.620;2023-04-20T08:41:24;95983.50;;;4.14;100.00
46724;BME280;32463;48.298;11.620;2023-04-20T08:43:51;95986.44;;;4.10;100.00
46724;BME280;32463;48.298;11.620;2023-04-20T08:46:18;95987.06;;;4.23;100.00
46724;BME280;32463;48.298;11.620;2023-04-20T08:48:45;95992.09;;;4.34;100.00
46724;BME280;32463;48.298;11.620;2023-04-20T08:51:14;95981.25;;;4.21;100.00
46724;BME280;32463;48.298;11.620;2023-04-20T08:53:41;95982.09;;;4.31;100.00
46724;BME280;32463;48.298;11.620;2023-04-20T08:56:08;95989.97;;;4.39;100.00
46724;BME280;32463;48.298;11.620;2023-04-20T08:58:35;95988.44;;;4.27;100.00
46724;BME280;32463;48.298;11.620;2023-04-20T09:01:02;95984.25;;;4.26;100.00
46724;BME280;32463;48.298;11.620;2023-04-20T09:03:33;95986.53;;;4.29;100.00
46724;BME280;32463;48.298;11.620;2023-04-20T09:06:00;95989.41;;;4.35;100.00
46724;BME280;32463;48.298;11.620;2023-04-20T09:08:38;95986.47;;;4.40;100.00
46724;BME280;32463;48.298;11.620;2023-04-20T09:11:05;95985.88;;;4.27;100.00
46724;BME280;32463;48.298;11.620;2023-04-20T09:13:32;95993.41;;;4.28;100.00
46724;BME280;32463;48.298;11.620;2023-04-20T09:16:09;95992.09;;;4.34;100.00
46724;BME280;32463;48.298;11.620;2023-04-20T09:18:36;95988.59;;;4.35;100.00
46724;BME280;32463;48.298;11.620;2023-04-20T09:21:07;95979.56;;;4.40;100.00
46724;BME280;32463;48.298;11.620;2023-04-20T09:23:34;95991.88;;;4.47;100.00
46724;BME280;32463;48.298;11.620;2023-04-20T09:26:00;95987.56;;;4.47;100.00
46724;BME280;32463;48.298;11.620;2023-04-20T09:28:37;95991.63;;;4.50;100.00
46724;BME280;32463;48.298;11.620;2023-04-20T09:31:04;95987.19;;;4.61;100.00
46724;BME280;32463;48.298;11.620;2023-04-20T09:33:31;95994.91;;;4.61;100.00
46724;BME280;32463;48.298;11.620;2023-04-20T09:36:05;95991.38;;;4.62;100.00
46724;BME280;32463;48.298;11.620;2023-04-20T09:38:31;95988.19;;;4.70;100.00
46724;BME280;32463;48.298;11.620;2023-04-20T09:40:58;95988.09;;;4.81;100.00
46724;BME280;32463;48.298;11.620;2023-04-20T09:43:27;95978.63;;;4.91;100.00
46724;BME280;32463;48.298;11.620;2023-04-20T09:45:54;95982.81;;;4.92;100.00
46724;BME280;32463;48.298;11.620;2023-04-20T09:48:21;95973.63;;;4.90;100.00
46724;BME280;32463;48.298;11.620;2023-04-20T09:50:47;95982.00;;;4.92;100.00
46724;BME280;32463;48.298;11.620;2023-04-20T09:53:15;95976.19;;;4.90;100.00
46724;BME280;32463;48.298;11.620;2023-04-20T09:55:47;95954.84;;;4.99;100.00
46724;BME280;32463;48.298;11.620;2023-04-20T09:58:13;95968.09;;;5.04;100.00
46724;BME280;32463;48.298;11.620;2023-04-20T10:00:40;95960.13;;;5.07;100.00
46724;BME280;32463;48.298;11.620;2023-04-20T10:03:07;95959.97;;;4.99;100.00
46724;BME280;32463;48.298;11.620;2023-04-20T10:05:35;95949.28;;;4.94;100.00
46724;BME280;32463;48.298;11.620;2023-04-20T10:08:04;95941.22;;;5.08;100.00
46724;BME280;32463;48.298;11.620;2023-04-20T10:10:42;95942.56;;;5.12;100.00
46724;BME280;32463;48.298;11.620;2023-04-20T10:13:09;95943.78;;;5.18;100.00
46724;BME280;32463;48.298;11.620;2023-04-20T10:15:37;95949.19;;;5.24;100.00
46724;BME280;32463;48.298;11.620;2023-04-20T10:20:41;95935.22;;;5.56;100.00
46724;BME280;32463;48.298;11.620;2023-04-20T10:23:09;95934.69;;;5.62;100.00
46724;BME280;32463;48.298;11.620;2023-04-20T10:25:38;95942.13;;;5.65;100.00
46724;BME280;32463;48.298;11.620;2023-04-20T10:28:05;95940.38;;;5.56;100.00
46724;BME280;32463;48.298;11.620;2023-04-20T10:30:34;95921.13;;;5.89;100.00
46724;BME280;32463;48.298;11.620;2023-04-20T10:33:11;95923.78;;;6.06;100.00
46724;BME280;32463;48.298;11.620;2023-04-20T10:35:53;95931.03;;;6.21;100.00
46724;BME280;32463;48.298;11.620;2023-04-20T10:38:30;95936.38;;;6.10;100.00
46724;BME280;32463;48.298;11.620;2023-04-20T10:41:07;95926.16;;;6.18;100.00
46724;BME280;32463;48.298;11.620;2023-04-20T10:43:34;95919.31;;;6.36;100.00
46724;BME280;32463;48.298;11.620;2023-04-20T10:46:15;95920.13;;;6.36;100.00
46724;BME280;32463;48.298;11.620;2023-04-20T10:48:51;95922.44;;;6.02;100.00
46724;BME280;32463;48.298;11.620;2023-04-20T10:51:19;95917.44;;;6.01;100.00
46724;BME280;32463;48.298;11.620;2023-04-20T10:53:46;95906.34;;;5.81;100.00
46724;BME280;32463;48.298;11.620;2023-04-20T10:56:22;95906.50;;;5.89;100.00
46724;BME280;32463;48.298;11.620;2023-04-20T10:58:49;95905.13;;;5.85;100.00
46724;BME280;32463;48.298;11.620;2023-04-20T11:01:16;95908.81;;;5.73;100.00
46724;BME280;32463;48.298;11.620;2023-04-20T11:03:48;95903.13;;;5.79;100.00
46724;BME280;32463;48.298;11.620;2023-04-20T11:06:15;95894.81;;;5.85;100.00
46724;BME280;32463;48.298;11.620;2023-04-20T11:08:42;95903.22;;;5.97;100.00
46724;BME280;32463;48.298;11.620;2023-04-20T11:11:23;95919.47;;;5.97;100.00
46724;BME280;32463;48.298;11.620;2023-04-20T11:13:52;95896.88;;;5.91;100.00
46724;BME280;32463;48.298;11.620;2023-04-20T11:16:29;95892.69;;;5.90;100.00
46724;BME280;32463;48.298;11.620;2023-04-20T11:18:56;95898.63;;;6.00;100.00
46724;BME280;32463;48.298;11.620;2023-04-20T11:21:42;95887.84;;;6.15;100.00
46724;BME280;32463;48.298;11.620;2023-04-20T11:24:28;95895.50;;;6.34;100.00
46724;BME280;32463;48.298;11.620;2023-04-20T11:26:56;95892.69;;;6.45;100.00
46724;BME280;32463;48.298;11.620;2023-04-20T11:31:52;95889.53;;;6.79;100.00
46724;BME280;32463;48.298;11.620;2023-04-20T11:34:19;95873.28;;;7.39;100.00
46724;BME280;32463;48.298;11.620;2023-04-20T11:36:46;95872.38;;;8.00;100.00
46724;BME280;32463;48.298;11.620;2023-04-20T11:39:30;95863.84;;;7.74;100.00
46724;BME280;32463;48.298;11.620;2023-04-20T11:41:57;95873.19;;;7.23;100.00
46724;BME280;32463;48.298;11.620;2023-04-20T11:44:24;95877.31;;;7.16;100.00
46724;BME280;32463;48.298;11.620;2023-04-20T11:46:52;95864.00;;;7.03;100.00
46724;BME280;32463;48.298;11.620;2023-04-20T11:49:24;95858.53;;;7.06;100.00
46724;BME280;32463;48.298;11.620;2023-04-20T11:51:51;95867.63;;;7.36;100.00
46724;BME280;32463;48.298;11.620;2023-04-20T11:54:17;95858.97;;;7.63;100.00
46724;BME280;32463;48.298;11.620;2023-04-20T11:56:44;95857.69;;;8.01;100.00
46724;BME280;32463;48.298;11.620;2023-04-20T11:59:11;95859.94;;;7.70;100.00
46724;BME280;32463;48.298;11.620;2023-04-20T12:01:38;95867.38;;;7.73;100.00
46724;BME280;32463;48.298;11.620;2023-04-20T12:04:05;95860.69;;;7.36;100.00
46724;BME280;32463;48.298;11.620;2023-04-20T12:06:31;95856.28;;;7.03;100.00
46724;BME280;32463;48.298;11.620;2023-04-20T12:08:58;95854.94;;;6.99;100.00
46724;BME280;32463;48.298;11.620;2023-04-20T12:11:25;95852.00;;;7.37;100.00
46724;BME280;32463;48.298;11.620;2023-04-20T12:13:52;95842.75;;;7.53;100.00
46724;BME280;32463;48.298;11.620;2023-04-20T12:16:18;95855.91;;;7.41;100.00
46724;BME280;32463;48.298;11.620;2023-04-20T12:18:45;95854.47;;;7.03;100.00
46724;BME280;32463;48.298;11.620;2023-04-20T12:21:13;95851.81;;;7.13;100.00
46724;BME280;32463;48.298;11.620;2023-04-20T12:23:39;95855.00;;;6.89;100.00
46724;BME280;32463;48.298;11.620;2023-04-20T12:26:08;95849.53;;;7.10;100.00
46724;BME280;32463;48.298;11.620;2023-04-20T12:28:34;95839.78;;;6.96;100.00
46724;BME280;32463;48.298;11.620;2023-04-20T12:31:01;95848.34;;;7.04;100.00
46724;BME280;32463;48.298;11.620;2023-04-20T12:33:27;95851.81;;;7.13;100.00
46724;BME280;32463;48.298;11.620;2023-04-20T12:35:54;95855.78;;;7.25;100.00
46724;BME280;32463;48.298;11.620;2023-04-20T12:38:20;95849.91;;;7.15;100.00
46724;BME280;32463;48.298;11.620;2023-04-20T12:40:47;95847.47;;;7.14;100.00
46724;BME280;32463;48.298;11.620;2023-04-20T12:43:13;95846.22;;;7.18;100.00
46724;BME280;32463;48.298;11.620;2023-04-20T12:45:40;95841.38;;;7.15;100.00
46724;BME280;32463;48.298;11.620;2023-04-20T12:48:07;95844.53;;;7.26;100.00
46724;BME280;32463;48.298;11.620;2023-04-20T12:50:33;95842.97;;;7.33;100.00
46724;BME280;32463;48.298;11.620;2023-04-20T12:52:59;95833.97;;;6.94;100.00
46724;BME280;32463;48.298;11.620;2023-04-20T12:55:26;95836.06;;;7.16;100.00
46724;BME280;32463;48.298;11.620;2023-04-20T12:57:53;95830.00;;;7.25;100.00